Time;durP1;ratioP1;P1;durP2;ratioP2;P2;SDS_P1;SDS_P2;PMS_P1;PMS_P2;Temp;Humidity;BMP_temperature;BMP_pressure;BME280_temperature;BME280_humidity;BME280_pressure;Samples;Min_cycle;Max_cycle;Signal;HPM_P1;HPM_P2
2023/10/28 00:00:59;;;;;;;2.28;0.30;;;11.60;99.90;;;;;;5095511;28;20031;-81
2023/10/28 00:03:26;;;;;;;0.50;0.30;;;11.60;99.90;;;;;;5095404;28;20096;-81
2023/10/28 00:05:51;;;;;;;2.40;0.30;;;11.60;99.90;;;;;;5094971;28;20028;-80
2023/10/28 00:08:17;;;;;;;0.28;0.28;;;11.50;99.90;;;;;;5096176;28;20028;-80
2023/10/28 00:10:44;;;;;;;1.77;0.32;;;11.50;99.90;;;;;;5094912;28;20518;-80
2023/10/28 00:13:11;;;;;;;0.40;0.30;;;11.50;99.90;;;;;;5095317;28;20453;-80
2023/10/28 00:15:39;;;;;;;0.38;0.28;;;11.50;99.90;;;;;;5094399;28;20040;-78
2023/10/28 00:18:05;;;;;;;0.63;0.35;;;11.50;99.90;;;;;;5096199;28;20381;-79
2023/10/28 00:20:31;;;;;;;0.40;0.20;;;11.50;99.90;;;;;;5095395;28;20028;-79
2023/10/28 00:23:00;;;;;;;0.77;0.40;;;11.40;99.90;;;;;;5095705;28;20024;-79
2023/10/28 00:25:31;;;;;;;0.40;0.30;;;11.40;99.90;;;;;;5095057;28;20048;-79
2023/10/28 00:27:57;;;;;;;1.83;1.05;;;11.40;99.90;;;;;;5094685;28;20119;-80
2023/10/28 00:30:24;;;;;;;3.03;0.40;;;11.40;99.90;;;;;;5096263;28;20028;-80
2023/10/28 00:32:52;;;;;;;1.00;0.28;;;11.40;99.90;;;;;;5095657;28;20024;-80
2023/10/28 00:35:18;;;;;;;0.95;0.40;;;11.40;99.90;;;;;;5094903;28;20032;-81
2023/10/28 00:37:44;;;;;;;0.50;0.30;;;11.40;99.90;;;;;;5093837;28;20055;-80
2023/10/28 00:40:11;;;;;;;0.20;0.20;;;11.40;99.90;;;;;;5095866;28;20024;-80
2023/10/28 00:42:36;;;;;;;2.72;0.40;;;11.40;99.90;;;;;;5094397;28;20036;-80
2023/10/28 00:45:08;;;;;;;0.30;0.20;;;11.40;99.90;;;;;;5094883;28;20039;-80
2023/10/28 00:47:34;;;;;;;2.53;0.50;;;11.30;99.90;;;;;;5094954;28;20527;-80
2023/10/28 00:50:03;;;;;;;0.52;0.30;;;11.30;99.90;;;;;;5095325;28;20084;-80
2023/10/28 00:52:28;;;;;;;0.98;0.30;;;11.40;99.90;;;;;;5095507;28;20028;-80
2023/10/28 00:54:56;;;;;;;0.60;0.30;;;11.30;99.90;;;;;;5093747;28;20540;-80
2023/10/28 00:57:22;;;;;;;0.45;0.30;;;11.30;99.90;;;;;;5094123;28;20069;-80
2023/10/28 00:59:48;;;;;;;0.77;0.30;;;11.30;99.90;;;;;;5093610;28;20058;-80
2023/10/28 01:02:14;;;;;;;3.60;0.60;;;11.40;99.90;;;;;;5094100;28;20032;-81
2023/10/28 01:04:40;;;;;;;0.63;0.30;;;11.30;99.90;;;;;;5093709;28;20024;-80
2023/10/28 01:07:06;;;;;;;0.70;0.30;;;11.30;99.90;;;;;;5095452;28;20031;-81
2023/10/28 01:09:42;;;;;;;1.17;0.30;;;11.30;99.90;;;;;;5095222;28;20027;-80
2023/10/28 01:12:08;;;;;;;0.70;0.38;;;11.40;99.90;;;;;;5094165;28;20024;-80
2023/10/28 01:14:34;;;;;;;0.80;0.40;;;11.30;99.90;;;;;;5094916;28;20081;-81
2023/10/28 01:17:03;;;;;;;0.40;0.30;;;11.30;99.90;;;;;;5094425;28;20036;-81
2023/10/28 01:19:29;;;;;;;1.42;0.30;;;11.30;99.90;;;;;;5094035;28;20480;-81
2023/10/28 01:21:55;;;;;;;4.13;0.45;;;11.30;99.90;;;;;;5093404;28;20024;-81
2023/10/28 01:24:20;;;;;;;2.10;0.93;;;11.30;99.90;;;;;;5093973;28;20469;-80
2023/10/28 01:26:46;;;;;;;2.20;0.40;;;11.30;99.90;;;;;;5093654;28;20031;-81
2023/10/28 01:29:12;;;;;;;0.50;0.30;;;11.30;99.90;;;;;;5093855;28;20020;-81
2023/10/28 01:31:38;;;;;;;0.70;0.30;;;11.30;99.90;;;;;;5093506;28;20031;-81
2023/10/28 01:34:03;;;;;;;2.58;0.30;;;11.30;99.90;;;;;;5094685;28;20020;-80
2023/10/28 01:36:30;;;;;;;0.38;0.15;;;11.30;99.90;;;;;;5093979;28;20048;-81
2023/10/28 01:38:56;;;;;;;0.47;0.30;;;11.30;99.90;;;;;;5093598;28;20030;-80
2023/10/28 01:41:22;;;;;;;0.35;0.25;;;11.30;99.90;;;;;;5093983;28;20035;-80
2023/10/28 01:43:47;;;;;;;2.08;0.40;;;11.20;99.90;;;;;;5094069;28;20432;-81
2023/10/28 01:46:13;;;;;;;1.25;0.50;;;11.20;99.90;;;;;;5094620;28;20032;-80
2023/10/28 01:48:39;;;;;;;1.52;0.32;;;11.20;99.90;;;;;;5093438;28;20458;-82
2023/10/28 01:51:04;;;;;;;1.10;0.28;;;11.20;99.90;;;;;;5094803;28;20027;-81
2023/10/28 01:53:30;;;;;;;1.02;0.40;;;11.20;99.90;;;;;;5092982;28;20469;-80
2023/10/28 01:55:58;;;;;;;1.10;0.38;;;11.10;99.90;;;;;;5092854;28;20036;-79
2023/10/28 01:58:24;;;;;;;0.50;0.30;;;11.10;99.90;;;;;;5093458;28;20032;-79
2023/10/28 02:00:50;;;;;;;1.40;0.52;;;11.10;99.90;;;;;;5092844;28;20032;-80
2023/10/28 02:03:15;;;;;;;2.17;0.50;;;11.10;99.90;;;;;;5093359;28;20202;-80
2023/10/28 02:05:41;;;;;;;3.38;0.40;;;11.10;99.90;;;;;;5092937;28;20034;-81
2023/10/28 02:08:06;;;;;;;0.80;0.40;;;11.10;99.90;;;;;;5093147;28;20055;-79
2023/10/28 02:10:33;;;;;;;0.50;0.30;;;11.10;99.90;;;;;;5094433;28;20020;-80
2023/10/28 02:12:58;;;;;;;1.60;0.40;;;11.20;99.90;;;;;;5092887;28;20085;-80
2023/10/28 02:15:25;;;;;;;1.75;0.38;;;11.20;99.90;;;;;;5093049;28;20036;-79
2023/10/28 02:17:50;;;;;;;1.40;0.40;;;11.20;99.90;;;;;;5092643;28;20503;-80
2023/10/28 02:20:16;;;;;;;1.45;0.32;;;11.20;99.90;;;;;;5093191;28;20024;-79
2023/10/28 02:22:42;;;;;;;1.17;0.50;;;11.20;99.90;;;;;;5092853;28;20056;-80
2023/10/28 02:25:09;;;;;;;2.25;0.35;;;11.30;99.90;;;;;;5092955;28;20028;-79
2023/10/28 02:27:37;;;;;;;1.50;0.25;;;11.30;99.90;;;;;;5094242;28;20088;-80
2023/10/28 02:30:05;;;;;;;1.70;0.40;;;11.30;99.90;;;;;;5093526;28;20024;-78
2023/10/28 02:32:31;;;;;;;1.10;0.30;;;11.30;99.90;;;;;;5094054;28;20020;-80
2023/10/28 02:34:59;;;;;;;2.15;0.40;;;11.30;99.90;;;;;;5092565;28;20028;-79
2023/10/28 02:37:25;;;;;;;2.22;0.50;;;11.40;99.90;;;;;;5092873;28;20123;-80
2023/10/28 02:39:51;;;;;;;0.70;0.47;;;11.30;99.90;;;;;;5092030;28;20020;-80
2023/10/28 02:42:17;;;;;;;1.70;0.40;;;11.30;99.90;;;;;;5092984;28;20031;-81
2023/10/28 02:44:42;;;;;;;0.93;0.40;;;11.40;99.90;;;;;;5092495;28;20051;-81
2023/10/28 02:47:08;;;;;;;1.77;0.35;;;11.40;99.90;;;;;;5093939;28;20036;-80
2023/10/28 02:49:37;;;;;;;2.15;0.43;;;11.40;99.90;;;;;;5093001;28;20063;-80
2023/10/28 02:52:02;;;;;;;0.93;0.40;;;11.40;99.90;;;;;;5092445;28;20032;-80
2023/10/28 02:54:28;;;;;;;4.60;0.70;;;11.40;99.90;;;;;;5092792;28;20113;-80
2023/10/28 02:56:54;;;;;;;2.63;0.47;;;11.40;99.90;;;;;;5093624;28;20028;-80
2023/10/28 02:59:19;;;;;;;4.55;0.68;;;11.50;99.90;;;;;;5092951;28;20070;-79
2023/10/28 03:01:45;;;;;;;2.72;0.50;;;11.50;99.90;;;;;;5092070;28;20055;-81
2023/10/28 03:04:12;;;;;;;2.67;0.50;;;11.50;99.90;;;;;;5093017;28;20035;-81
2023/10/28 03:06:38;;;;;;;7.50;0.52;;;11.50;99.90;;;;;;5094684;28;20024;-81
2023/10/28 03:09:04;;;;;;;1.35;0.50;;;11.50;99.90;;;;;;5095871;28;20164;-80
2023/10/28 03:11:29;;;;;;;3.03;0.70;;;11.50;99.90;;;;;;5096726;28;20487;-80
2023/10/28 03:13:55;;;;;;;2.50;0.70;;;11.50;99.90;;;;;;5096153;28;20036;-80
2023/10/28 03:16:20;;;;;;;3.05;0.50;;;11.50;99.90;;;;;;5096197;28;20036;-79
2023/10/28 03:18:46;;;;;;;3.47;0.52;;;11.50;99.90;;;;;;5097330;28;20032;-81
2023/10/28 03:21:12;;;;;;;5.55;0.73;;;11.50;99.90;;;;;;5096543;28;20031;-79
2023/10/28 03:23:37;;;;;;;3.92;0.70;;;11.50;99.90;;;;;;5096375;28;20115;-80
2023/10/28 03:26:06;;;;;;;1.48;0.52;;;11.50;99.90;;;;;;5095970;28;20039;-80
2023/10/28 03:28:32;;;;;;;4.32;0.45;;;11.60;99.90;;;;;;5096393;28;20030;-80
2023/10/28 03:30:57;;;;;;;2.28;0.50;;;11.60;99.90;;;;;;5096811;28;20024;-80
2023/10/28 03:33:23;;;;;;;2.05;0.77;;;11.60;99.90;;;;;;5096165;28;20024;-80
2023/10/28 03:35:49;;;;;;;4.70;1.13;;;11.60;99.90;;;;;;5096544;28;20059;-81
2023/10/28 03:38:14;;;;;;;2.55;0.50;;;11.60;99.90;;;;;;5096448;28;20386;-79
2023/10/28 03:40:40;;;;;;;3.50;0.80;;;11.60;99.90;;;;;;5097173;28;20095;-79
2023/10/28 03:43:06;;;;;;;2.40;0.93;;;11.70;99.90;;;;;;5095668;28;20122;-79
2023/10/28 03:45:31;;;;;;;3.88;0.38;;;11.60;99.90;;;;;;5096868;28;20099;-79
2023/10/28 03:47:57;;;;;;;2.83;0.40;;;11.70;99.90;;;;;;5096515;28;20028;-80
2023/10/28 03:50:24;;;;;;;2.63;0.50;;;11.60;99.90;;;;;;5095894;28;20047;-80
2023/10/28 03:52:50;;;;;;;4.53;0.70;;;11.70;99.90;;;;;;5096086;28;20453;-80
2023/10/28 03:55:16;;;;;;;4.68;0.90;;;11.70;99.90;;;;;;5095560;28;20028;-79
2023/10/28 03:57:42;;;;;;;1.25;0.70;;;11.70;99.90;;;;;;5096688;28;20115;-80
2023/10/28 04:00:11;;;;;;;3.58;0.63;;;11.70;99.90;;;;;;5096036;28;20077;-80
2023/10/28 04:02:36;;;;;;;2.95;0.60;;;11.70;99.90;;;;;;5095646;28;20031;-80
2023/10/28 04:05:03;;;;;;;4.95;0.65;;;11.70;99.90;;;;;;5095997;28;20027;-80
2023/10/28 04:07:28;;;;;;;3.88;0.63;;;11.70;99.90;;;;;;5096645;28;20028;-79
2023/10/28 04:09:54;;;;;;;2.70;0.63;;;11.70;99.90;;;;;;5095228;28;20028;-80
2023/10/28 04:12:20;;;;;;;3.20;0.70;;;11.70;99.90;;;;;;5095115;28;20366;-80
2023/10/28 04:14:45;;;;;;;5.05;0.70;;;11.70;99.90;;;;;;5095144;28;20028;-80
2023/10/28 04:17:11;;;;;;;1.33;0.50;;;11.70;99.90;;;;;;5094328;28;20058;-80
2023/10/28 04:19:38;;;;;;;2.20;0.60;;;11.80;99.90;;;;;;5095190;28;20034;-80
2023/10/28 04:22:03;;;;;;;6.47;1.00;;;11.70;99.90;;;;;;5094808;28;20115;-81
2023/10/28 04:24:29;;;;;;;1.88;0.30;;;11.80;99.90;;;;;;5095196;28;20116;-79
2023/10/28 04:26:55;;;;;;;6.10;0.70;;;11.80;99.90;;;;;;5094855;28;20052;-81
2023/10/28 04:29:20;;;;;;;3.38;0.50;;;11.80;99.90;;;;;;5095103;28;20087;-82
2023/10/28 04:31:46;;;;;;;3.92;0.60;;;11.80;99.90;;;;;;5095209;28;20032;-80
2023/10/28 04:34:11;;;;;;;1.85;0.63;;;11.80;99.90;;;;;;5095488;28;20062;-81
2023/10/28 04:36:37;;;;;;;2.63;0.70;;;11.80;99.90;;;;;;5094287;28;20048;-80
2023/10/28 04:39:03;;;;;;;3.67;0.77;;;11.80;99.90;;;;;;5095470;28;20035;-84
2023/10/28 04:41:28;;;;;;;2.45;0.52;;;11.80;99.90;;;;;;5094805;28;20093;-81
2023/10/28 04:43:54;;;;;;;1.13;0.45;;;11.80;99.90;;;;;;5093840;28;20020;-81
2023/10/28 04:46:20;;;;;;;1.88;0.65;;;11.80;99.90;;;;;;5095685;28;20082;-80
2023/10/28 04:48:46;;;;;;;2.58;0.40;;;11.80;99.90;;;;;;5095722;28;20032;-82
2023/10/28 04:51:13;;;;;;;3.70;0.75;;;11.80;99.90;;;;;;5093925;28;20020;-80
2023/10/28 04:53:38;;;;;;;2.88;0.60;;;11.80;99.90;;;;;;5094256;28;20024;-80
2023/10/28 04:56:08;;;;;;;3.25;0.50;;;11.80;99.90;;;;;;5093423;28;20393;-79
2023/10/28 04:58:34;;;;;;;2.53;0.70;;;11.80;99.90;;;;;;5095230;28;20020;-79
2023/10/28 05:00:59;;;;;;;2.92;1.00;;;11.80;99.90;;;;;;5093594;28;20465;-80
2023/10/28 05:03:25;;;;;;;1.58;0.40;;;11.80;99.90;;;;;;5095093;28;20032;-80
2023/10/28 05:05:50;;;;;;;2.38;0.60;;;11.80;99.90;;;;;;5095081;28;20036;-81
2023/10/28 05:08:16;;;;;;;1.17;0.55;;;11.80;99.90;;;;;;5094272;28;20067;-82
2023/10/28 05:10:42;;;;;;;1.80;0.50;;;11.80;99.90;;;;;;5094427;28;20024;-83
2023/10/28 05:13:10;;;;;;;2.38;0.75;;;11.90;99.90;;;;;;5093755;28;20024;-82
2023/10/28 05:15:36;;;;;;;4.03;0.50;;;11.90;99.90;;;;;;5093961;28;20040;-82
2023/10/28 05:18:02;;;;;;;0.98;0.30;;;11.90;99.90;;;;;;5093856;28;20036;-82
2023/10/28 05:20:28;;;;;;;2.50;0.47;;;11.90;99.90;;;;;;5094096;28;20024;-82
2023/10/28 05:22:53;;;;;;;4.55;0.50;;;11.90;99.90;;;;;;5093686;28;20488;-82
2023/10/28 05:25:19;;;;;;;1.20;0.43;;;11.90;99.90;;;;;;5095194;28;20032;-81
2023/10/28 05:27:44;;;;;;;1.50;0.30;;;11.90;99.90;;;;;;5094052;28;20028;-82
2023/10/28 05:30:11;;;;;;;1.00;0.40;;;11.90;99.90;;;;;;5093609;28;20028;-82
2023/10/28 05:32:37;;;;;;;1.67;0.55;;;11.90;99.90;;;;;;5095120;28;20024;-82
2023/10/28 05:35:03;;;;;;;1.50;0.20;;;11.90;99.90;;;;;;5093407;28;20036;-82
2023/10/28 05:37:28;;;;;;;4.05;0.30;;;12.00;99.90;;;;;;5094978;28;20044;-82
2023/10/28 05:39:56;;;;;;;3.45;0.60;;;12.00;99.90;;;;;;5093357;28;20027;-83
2023/10/28 05:42:23;;;;;;;1.35;0.25;;;12.00;99.90;;;;;;5094881;28;20024;-82
2023/10/28 05:44:49;;;;;;;2.75;0.38;;;12.00;99.90;;;;;;5094619;28;20020;-82
2023/10/28 05:47:16;;;;;;;3.45;0.40;;;12.00;99.90;;;;;;5093096;28;20534;-82
2023/10/28 05:49:42;;;;;;;1.20;0.30;;;12.00;99.90;;;;;;5094782;28;20040;-81
2023/10/28 05:52:09;;;;;;;2.30;0.60;;;12.00;99.90;;;;;;5093181;28;20024;-82
2023/10/28 05:54:35;;;;;;;2.17;0.43;;;12.10;99.90;;;;;;5094625;28;20578;-82
2023/10/28 05:57:00;;;;;;;1.60;0.30;;;12.10;99.90;;;;;;5093253;28;20028;-82
2023/10/28 05:59:26;;;;;;;1.92;0.30;;;12.00;99.90;;;;;;5093659;28;20169;-82
2023/10/28 06:01:51;;;;;;;2.63;0.30;;;12.10;99.90;;;;;;5094425;28;20030;-82
2023/10/28 06:04:21;;;;;;;0.50;0.50;;;12.10;99.90;;;;;;5093975;28;20476;-82
2023/10/28 06:06:47;;;;;;;0.55;0.20;;;12.10;99.90;;;;;;5094493;28;20369;-82
2023/10/28 06:09:13;;;;;;;2.25;0.40;;;12.10;99.90;;;;;;5092933;28;20078;-82
2023/10/28 06:11:39;;;;;;;1.63;0.40;;;12.10;99.90;;;;;;5094238;28;20031;-82
2023/10/28 06:14:05;;;;;;;1.40;0.30;;;12.20;99.90;;;;;;5092852;28;20381;-81
2023/10/28 06:16:30;;;;;;;1.33;0.30;;;12.10;99.90;;;;;;5094609;28;20043;-82
2023/10/28 06:18:56;;;;;;;2.70;0.40;;;12.20;99.90;;;;;;5093001;28;20032;-82
2023/10/28 06:21:22;;;;;;;2.78;0.50;;;12.20;99.90;;;;;;5093532;28;20073;-82
2023/10/28 06:23:48;;;;;;;3.13;0.38;;;12.20;99.90;;;;;;5093127;28;20027;-82
2023/10/28 06:26:13;;;;;;;1.55;0.30;;;12.20;99.90;;;;;;5093604;28;20036;-82
2023/10/28 06:28:39;;;;;;;1.83;0.73;;;12.20;99.90;;;;;;5093081;28;20587;-82
2023/10/28 06:31:05;;;;;;;1.63;0.25;;;12.20;99.90;;;;;;5093726;28;20032;-82
2023/10/28 06:33:32;;;;;;;1.15;0.40;;;12.20;99.90;;;;;;5094098;28;20154;-82
2023/10/28 06:35:57;;;;;;;2.50;0.30;;;12.20;99.90;;;;;;5092372;28;20087;-82
2023/10/28 06:38:27;;;;;;;1.15;0.25;;;12.20;99.90;;;;;;5094222;28;20456;-82
2023/10/28 06:40:53;;;;;;;1.42;0.40;;;12.20;99.90;;;;;;5096852;28;20020;-82
2023/10/28 06:43:18;;;;;;;1.95;0.40;;;12.30;99.90;;;;;;5096728;28;20385;-82
2023/10/28 06:45:45;;;;;;;1.15;0.43;;;12.30;99.90;;;;;;5096977;28;20384;-82
2023/10/28 06:48:10;;;;;;;3.50;0.50;;;12.30;99.90;;;;;;5096426;28;20035;-83
2023/10/28 06:50:36;;;;;;;1.10;0.50;;;12.30;99.90;;;;;;5096981;28;20032;-82
2023/10/28 06:53:02;;;;;;;2.53;0.80;;;12.30;99.90;;;;;;5096351;28;20031;-83
2023/10/28 06:55:27;;;;;;;1.45;0.50;;;12.30;99.90;;;;;;5096611;28;20394;-82
2023/10/28 06:57:54;;;;;;;2.17;0.60;;;12.30;99.90;;;;;;5096688;28;20024;-82
2023/10/28 07:00:23;;;;;;;4.57;1.70;;;12.40;99.90;;;;;;5096463;28;20091;-81
2023/10/28 07:02:49;;;;;;;5.53;1.80;;;12.40;99.90;;;;;;5098029;28;20060;-81
2023/10/28 07:05:15;;;;;;;3.63;1.02;;;12.40;99.90;;;;;;5096577;28;20028;-82
2023/10/28 07:07:40;;;;;;;3.10;1.05;;;12.40;99.90;;;;;;5096913;28;20096;-81
2023/10/28 07:10:06;;;;;;;5.55;1.80;;;12.40;99.90;;;;;;5096332;28;20083;-80
2023/10/28 07:12:32;;;;;;;3.22;0.90;;;12.40;99.90;;;;;;5096862;28;20024;-81
2023/10/28 07:14:58;;;;;;;3.03;0.50;;;12.40;99.90;;;;;;5096581;28;20051;-81
2023/10/28 07:17:24;;;;;;;4.97;0.73;;;12.40;99.90;;;;;;5097641;28;20028;-82
2023/10/28 07:19:52;;;;;;;4.88;0.95;;;12.50;99.90;;;;;;5097468;28;20112;-82
2023/10/28 07:22:20;;;;;;;6.97;1.42;;;12.50;99.90;;;;;;5096200;28;20024;-82
2023/10/28 07:24:46;;;;;;;1.60;0.50;;;12.60;99.90;;;;;;5096802;28;20031;-82
2023/10/28 07:27:12;;;;;;;1.90;0.50;;;12.60;99.90;;;;;;5096177;28;20035;-82
2023/10/28 07:29:38;;;;;;;2.80;0.80;;;12.60;99.90;;;;;;5096395;28;20024;-82
2023/10/28 07:32:05;;;;;;;2.80;0.73;;;12.60;99.90;;;;;;5095976;28;20031;-83
2023/10/28 07:34:31;;;;;;;2.92;0.65;;;12.70;99.90;;;;;;5096532;28;20024;-81
2023/10/28 07:37:00;;;;;;;1.70;0.60;;;12.70;99.90;;;;;;5095682;28;20109;-82
2023/10/28 07:39:26;;;;;;;1.17;0.45;;;12.70;99.90;;;;;;5097335;28;20077;-82
2023/10/28 07:41:53;;;;;;;4.20;0.75;;;12.70;99.90;;;;;;5096135;28;20020;-82
2023/10/28 07:44:19;;;;;;;4.80;1.00;;;12.70;99.90;;;;;;5095668;28;20028;-81
2023/10/28 07:46:46;;;;;;;3.42;1.20;;;12.60;99.90;;;;;;5097666;28;20028;-82
2023/10/28 07:49:12;;;;;;;5.03;1.10;;;12.60;99.90;;;;;;5095852;28;20035;-82
2023/10/28 07:51:38;;;;;;;4.47;1.17;;;12.70;99.90;;;;;;5095261;28;20024;-81
2023/10/28 07:54:04;;;;;;;2.25;0.85;;;12.60;99.90;;;;;;5095365;28;20024;-82
2023/10/28 07:56:30;;;;;;;1.95;0.85;;;12.70;99.90;;;;;;5095818;28;20102;-82
2023/10/28 07:58:59;;;;;;;2.78;0.80;;;12.70;99.90;;;;;;5096670;28;20491;-82
2023/10/28 08:01:27;;;;;;;1.63;0.73;;;12.70;99.90;;;;;;5096356;28;20066;-82
2023/10/28 08:03:53;;;;;;;2.33;0.70;;;12.80;99.90;;;;;;5095686;28;20449;-81
2023/10/28 08:06:19;;;;;;;1.30;0.50;;;12.80;99.90;;;;;;5095081;28;20035;-82
2023/10/28 08:08:46;;;;;;;1.25;0.55;;;12.80;99.90;;;;;;5095740;28;20031;-82
2023/10/28 08:11:13;;;;;;;1.85;0.50;;;12.80;99.90;;;;;;5095457;28;20028;-82
2023/10/28 08:13:39;;;;;;;3.75;0.45;;;12.90;99.90;;;;;;5095611;28;20533;-81
2023/10/28 08:16:09;;;;;;;4.88;0.50;;;12.90;99.90;;;;;;5094779;28;20063;-82
2023/10/28 08:18:43;;;;;;;2.65;0.52;;;12.90;99.90;;;;;;5095926;28;20166;-81
2023/10/28 08:21:10;;;;;;;1.83;0.50;;;12.90;99.90;;;;;;5095050;28;20055;-82
2023/10/28 08:23:39;;;;;;;3.72;0.52;;;13.00;99.90;;;;;;5094995;28;20427;-82
2023/10/28 08:26:07;;;;;;;3.47;0.50;;;13.10;99.90;;;;;;5094997;28;20032;-82
2023/10/28 08:28:32;;;;;;;4.13;0.50;;;13.10;99.90;;;;;;5095566;28;20042;-82
2023/10/28 08:30:58;;;;;;;2.45;0.50;;;13.10;99.90;;;;;;5096397;28;20032;-82
2023/10/28 08:33:24;;;;;;;2.63;0.50;;;13.10;99.90;;;;;;5094860;28;20028;-82
2023/10/28 08:35:51;;;;;;;1.42;0.40;;;13.10;99.90;;;;;;5094745;28;20028;-81
2023/10/28 08:38:18;;;;;;;2.15;0.45;;;13.10;99.90;;;;;;5095678;28;20032;-82
2023/10/28 08:40:47;;;;;;;3.05;0.70;;;13.20;99.90;;;;;;5095043;28;20030;-81
2023/10/28 08:43:17;;;;;;;3.35;0.68;;;13.20;99.90;;;;;;5094255;28;20071;-82
2023/10/28 08:45:44;;;;;;;1.50;0.55;;;13.20;99.90;;;;;;5095191;28;20032;-82
2023/10/28 08:48:20;;;;;;;3.00;0.60;;;13.30;99.90;;;;;;5094277;28;20032;-82
2023/10/28 08:50:50;;;;;;;3.03;0.70;;;13.30;99.90;;;;;;5095123;28;20031;-81
2023/10/28 08:53:18;;;;;;;2.17;0.40;;;13.40;99.90;;;;;;5094519;28;20024;-82
2023/10/28 08:55:46;;;;;;;2.55;0.77;;;13.40;99.90;;;;;;5094793;28;20038;-82
2023/10/28 08:58:12;;;;;;;3.85;0.55;;;13.40;99.90;;;;;;5094265;28;20065;-82
2023/10/28 09:00:38;;;;;;;2.95;0.65;;;13.40;99.90;;;;;;5094677;28;20050;-82
2023/10/28 09:03:05;;;;;;;2.67;0.60;;;13.40;99.90;;;;;;5093969;28;20024;-82
2023/10/28 09:05:31;;;;;;;2.47;0.50;;;13.50;99.90;;;;;;5094302;28;20050;-82
2023/10/28 09:07:56;;;;;;;0.95;0.68;;;13.40;99.90;;;;;;5095406;28;20496;-81
2023/10/28 09:10:23;;;;;;;1.40;0.45;;;13.50;99.90;;;;;;5094132;28;20384;-82
2023/10/28 09:12:51;;;;;;;2.33;0.45;;;13.50;99.90;;;;;;5094468;28;20030;-82
2023/10/28 09:15:17;;;;;;;4.68;0.80;;;13.50;99.90;;;;;;5093803;28;20547;-82
2023/10/28 09:17:43;;;;;;;1.17;0.70;;;13.50;99.90;;;;;;5094644;28;20028;-82
2023/10/28 09:20:11;;;;;;;1.45;0.55;;;13.60;99.90;;;;;;5094054;28;20494;-82
2023/10/28 09:22:42;;;;;;;4.03;0.40;;;13.60;99.90;;;;;;5094313;28;20119;-82
2023/10/28 09:25:10;;;;;;;2.00;0.50;;;13.70;99.90;;;;;;5093211;28;20032;-82
2023/10/28 09:27:36;;;;;;;4.75;0.85;;;13.70;99.90;;;;;;5095197;28;20103;-82
2023/10/28 09:30:06;;;;;;;1.50;0.52;;;13.70;99.90;;;;;;5095070;28;20055;-82
2023/10/28 09:32:35;;;;;;;1.88;0.47;;;13.70;99.90;;;;;;5093508;28;20044;-81
2023/10/28 09:35:07;;;;;;;2.75;0.47;;;13.70;99.90;;;;;;5094551;28;20542;-81
2023/10/28 09:37:38;;;;;;;1.05;0.47;;;13.80;99.90;;;;;;5095134;28;20477;-82
2023/10/28 09:40:06;;;;;;;4.78;0.47;;;13.80;99.90;;;;;;5094135;28;20039;-82
2023/10/28 09:42:34;;;;;;;4.00;0.75;;;13.90;99.90;;;;;;5094214;28;20480;-82
2023/10/28 09:45:01;;;;;;;3.17;0.43;;;13.90;99.90;;;;;;5094487;28;20108;-82
2023/10/28 09:47:51;;;;;;;3.35;0.70;;;14.00;99.90;;;;;;5094287;28;20039;-82
2023/10/28 09:50:21;;;;;;;2.88;0.80;;;14.00;99.90;;;;;;5094220;28;20024;-82
2023/10/28 09:52:48;;;;;;;2.75;0.60;;;14.00;99.90;;;;;;5093781;28;20042;-82
2023/10/28 09:55:15;;;;;;;4.68;0.60;;;14.10;99.90;;;;;;5092933;28;20057;-82
2023/10/28 09:57:43;;;;;;;1.45;0.50;;;14.10;99.90;;;;;;5094852;28;20441;-82
2023/10/28 10:00:17;;;;;;;3.50;0.70;;;14.10;99.90;;;;;;5093317;28;20056;-82
2023/10/28 10:03:19;;;;;;;3.90;0.43;;;14.20;99.90;;;;;;5093703;28;20069;-82
2023/10/28 10:05:45;;;;;;;5.45;0.98;;;14.20;99.90;;;;;;5093719;28;20035;-82
2023/10/28 10:08:22;;;;;;;3.17;0.55;;;14.20;99.90;;;;;;5092962;28;20393;-82
2023/10/28 10:10:49;;;;;;;3.30;0.70;;;14.30;99.90;;;;;;5093214;28;20050;-82
2023/10/28 10:13:15;;;;;;;1.63;0.40;;;14.30;99.90;;;;;;5092825;28;20032;-82
2023/10/28 10:15:51;;;;;;;2.95;0.60;;;14.30;99.90;;;;;;5092893;28;20036;-82
2023/10/28 10:18:30;;;;;;;3.65;0.57;;;14.40;99.90;;;;;;5093851;28;20036;-81
2023/10/28 10:21:12;;;;;;;4.95;0.60;;;14.50;99.90;;;;;;5093321;28;20033;-82
2023/10/28 10:23:42;;;;;;;3.22;0.50;;;14.60;99.90;;;;;;5094309;28;20107;-82
2023/10/28 10:26:18;;;;;;;4.05;0.65;;;14.50;99.90;;;;;;5094141;28;20058;-81
2023/10/28 10:28:46;;;;;;;2.60;1.15;;;14.60;99.90;;;;;;5093541;28;20024;-82
2023/10/28 10:31:12;;;;;;;2.45;0.60;;;14.70;99.90;;;;;;5092759;28;20020;-83
2023/10/28 10:33:38;;;;;;;3.45;0.90;;;14.70;99.90;;;;;;5094369;28;20021;-82
2023/10/28 10:36:16;;;;;;;4.20;0.65;;;14.80;99.90;;;;;;5092913;28;20047;-81
2023/10/28 10:38:43;;;;;;;3.90;0.60;;;14.80;99.90;;;;;;5094094;28;20242;-82
2023/10/28 10:41:09;;;;;;;3.58;0.63;;;14.90;99.90;;;;;;5093318;28;20059;-82
2023/10/28 10:43:37;;;;;;;3.13;0.52;;;14.90;99.90;;;;;;5092795;28;20035;-82
2023/10/28 10:46:04;;;;;;;3.85;0.70;;;15.00;99.90;;;;;;5094255;28;20028;-80
2023/10/28 10:48:33;;;;;;;2.28;0.82;;;15.00;99.90;;;;;;5092005;28;20035;-82
2023/10/28 10:50:59;;;;;;;4.50;0.45;;;15.00;99.90;;;;;;5093035;28;20050;-82
2023/10/28 10:53:25;;;;;;;2.83;0.70;;;15.10;99.90;;;;;;5092596;28;20027;-82
2023/10/28 10:55:51;;;;;;;5.28;1.42;;;15.10;99.90;;;;;;5092864;28;20028;-82
2023/10/28 10:58:16;;;;;;;6.53;1.92;;;15.00;99.90;;;;;;5091983;28;20040;-82
2023/10/28 11:00:51;;;;;;;10.45;3.47;;;15.00;99.90;;;;;;5092836;28;20055;-82
2023/10/28 11:03:16;;;;;;;7.35;2.20;;;15.00;99.90;;;;;;5093685;28;20469;-82
2023/10/28 11:05:43;;;;;;;13.20;2.63;;;15.00;99.90;;;;;;5093898;28;20032;-82
2023/10/28 11:08:09;;;;;;;3.70;1.08;;;14.90;99.90;;;;;;5093909;28;20028;-81
2023/10/28 11:10:35;;;;;;;4.40;1.00;;;14.90;99.90;;;;;;5092230;28;20028;-82
2023/10/28 11:13:04;;;;;;;4.75;1.02;;;14.80;99.90;;;;;;5092672;28;20066;-82
2023/10/28 11:15:32;;;;;;;5.32;0.93;;;14.90;99.90;;;;;;5092999;28;20042;-81
2023/10/28 11:17:58;;;;;;;3.97;0.90;;;14.80;99.90;;;;;;5092754;28;20040;-82
2023/10/28 11:20:24;;;;;;;4.07;0.80;;;14.80;99.90;;;;;;5092240;28;20032;-82
2023/10/28 11:22:51;;;;;;;2.10;0.90;;;14.90;99.90;;;;;;5093736;28;20025;-82
2023/10/28 11:25:17;;;;;;;3.95;0.70;;;14.90;99.90;;;;;;5092058;28;20120;-83
2023/10/28 11:27:44;;;;;;;3.92;0.82;;;14.90;99.90;;;;;;5094693;28;20020;-82
2023/10/28 11:30:10;;;;;;;6.32;1.65;;;14.80;99.90;;;;;;5097399;28;20020;-82
2023/10/28 11:32:40;;;;;;;12.10;4.07;;;14.90;99.90;;;;;;5096897;28;20028;-82
2023/10/28 11:35:08;;;;;;;11.68;3.92;;;14.90;99.90;;;;;;5096039;28;20080;-82
2023/10/28 11:37:34;;;;;;;12.27;5.55;;;15.00;99.90;;;;;;5095766;28;20222;-82
2023/10/28 11:40:00;;;;;;;11.55;3.35;;;15.00;99.90;;;;;;5096712;28;20028;-82
2023/10/28 11:42:27;;;;;;;8.70;2.08;;;15.10;99.90;;;;;;5095548;28;20031;-82
2023/10/28 11:44:52;;;;;;;4.32;1.38;;;15.00;99.90;;;;;;5096739;28;20115;-82
2023/10/28 11:47:21;;;;;;;3.40;1.00;;;15.00;99.90;;;;;;5096725;28;20071;-83
2023/10/28 11:49:47;;;;;;;4.47;1.52;;;15.00;99.90;;;;;;5095928;28;20028;-82
2023/10/28 11:52:12;;;;;;;3.58;0.95;;;14.90;99.90;;;;;;5095947;28;20376;-82
2023/10/28 11:54:39;;;;;;;2.90;0.73;;;14.80;99.90;;;;;;5096010;28;20032;-83
2023/10/28 11:57:05;;;;;;;1.75;0.73;;;14.80;99.90;;;;;;5097059;28;20090;-82
2023/10/28 11:59:30;;;;;;;4.32;0.90;;;14.80;99.90;;;;;;5095392;28;20469;-82
2023/10/28 12:01:58;;;;;;;3.90;0.90;;;14.70;99.90;;;;;;5097426;28;20111;-82
2023/10/28 12:04:25;;;;;;;8.00;0.68;;;14.60;99.90;;;;;;5095092;28;20028;-83
2023/10/28 12:06:51;;;;;;;4.53;1.08;;;14.50;99.90;;;;;;5095599;28;20062;-82
2023/10/28 12:09:17;;;;;;;4.43;0.60;;;14.40;99.90;;;;;;5096241;28;20107;-83
2023/10/28 12:11:43;;;;;;;6.78;1.17;;;14.30;99.90;;;;;;5095733;28;20113;-82
2023/10/28 12:14:08;;;;;;;5.47;1.05;;;14.30;99.90;;;;;;5095297;28;20453;-82
2023/10/28 12:16:38;;;;;;;3.33;0.80;;;14.30;99.90;;;;;;5094845;28;20036;-82
2023/10/28 12:19:07;;;;;;;2.03;0.80;;;14.30;99.90;;;;;;5096376;28;20032;-82
2023/10/28 12:21:37;;;;;;;5.03;0.82;;;14.30;99.90;;;;;;5094406;28;20035;-82
2023/10/28 12:24:03;;;;;;;5.45;1.00;;;14.20;99.90;;;;;;5095035;28;20028;-82
2023/10/28 12:26:29;;;;;;;7.65;1.00;;;14.10;99.90;;;;;;5094480;28;20035;-82
2023/10/28 12:28:56;;;;;;;3.90;1.05;;;14.10;99.90;;;;;;5095091;28;20047;-82
2023/10/28 12:31:22;;;;;;;6.15;0.93;;;14.00;99.90;;;;;;5094778;28;20020;-82
2023/10/28 12:33:48;;;;;;;3.22;0.85;;;14.00;99.90;;;;;;5095264;28;20114;-82
2023/10/28 12:36:16;;;;;;;4.55;0.90;;;14.00;99.90;;;;;;5094739;28;20377;-82
2023/10/28 12:38:42;;;;;;;13.23;2.70;;;13.90;99.90;;;;;;5095870;28;20024;-83
2023/10/28 12:41:08;;;;;;;7.13;1.92;;;13.90;99.90;;;;;;5094814;28;20031;-82
2023/10/28 12:43:35;;;;;;;4.72;1.20;;;13.80;99.90;;;;;;5097746;28;20461;-82